Terminal Aerodrome Forecast
Issued by NWS Jackson, MS

Current Version | Previous Version | Text Only | Print | Product List | Glossary On
Versions: 1 2 3 4 5 6 7 8 9 10 11 12 13
000
FTUS44 KMEG 311700
TAFTUP
TAF
KTUP 311732Z 3118/0118 36013G20KT P6SM BKN025
     FM010100 35010KT P6SM SKC
     FM011500 35012G20KT P6SM SKC=

USA.gov is the U.S. government's official web portal to all federal, state and local government web resources and services.